sensor_id;sensor_type;location;lat;lon;timestamp;temperature;humidity
76956;DHT22;65894;53.206;-6.108;2023-02-01T00:00:32;20.13;50.92
76956;DHT22;65894;53.206;-6.108;2023-02-01T00:03:00;20.12;50.95
76956;DHT22;65894;53.206;-6.108;2023-02-01T00:05:25;20.13;50.86
76956;DHT22;65894;53.206;-6.108;2023-02-01T00:07:51;20.16;50.96
76956;DHT22;65894;53.206;-6.108;2023-02-01T00:10:17;20.16;50.98
76956;DHT22;65894;53.206;-6.108;2023-02-01T00:12:43;20.18;51.00
76956;DHT22;65894;53.206;-6.108;2023-02-01T00:15:08;20.19;50.94
76956;DHT22;65894;53.206;-6.108;2023-02-01T00:17:34;20.18;51.01
76956;DHT22;65894;53.206;-6.108;2023-02-01T00:19:59;20.18;50.94
76956;DHT22;65894;53.206;-6.108;2023-02-01T00:22:25;20.19;50.92
76956;DHT22;65894;53.206;-6.108;2023-02-01T00:24:50;20.19;50.96
76956;DHT22;65894;53.206;-6.108;2023-02-01T00:27:16;20.20;50.87
76956;DHT22;65894;53.206;-6.108;2023-02-01T00:29:45;20.19;51.11
76956;DHT22;65894;53.206;-6.108;2023-02-01T00:32:11;20.20;51.11
76956;DHT22;65894;53.206;-6.108;2023-02-01T00:34:37;20.18;50.99
76956;DHT22;65894;53.206;-6.108;2023-02-01T00:37:02;20.18;51.02
76956;DHT22;65894;53.206;-6.108;2023-02-01T00:39:28;20.19;51.01
76956;DHT22;65894;53.206;-6.108;2023-02-01T00:41:53;20.22;50.97
76956;DHT22;65894;53.206;-6.108;2023-02-01T00:44:19;20.20;50.98
76956;DHT22;65894;53.206;-6.108;2023-02-01T00:46:45;20.22;50.90
76956;DHT22;65894;53.206;-6.108;2023-02-01T00:49:10;20.22;50.98
76956;DHT22;65894;53.206;-6.108;2023-02-01T00:51:36;20.22;51.08
76956;DHT22;65894;53.206;-6.108;2023-02-01T00:54:02;20.22;50.99
76956;DHT22;65894;53.206;-6.108;2023-02-01T00:56:28;20.20;50.98
76956;DHT22;65894;53.206;-6.108;2023-02-01T00:58:54;20.23;51.17
76956;DHT22;65894;53.206;-6.108;2023-02-01T01:01:26;20.25;51.32
76956;DHT22;65894;53.206;-6.108;2023-02-01T01:03:54;20.26;51.64
76956;DHT22;65894;53.206;-6.108;2023-02-01T01:06:25;20.28;52.31
76956;DHT22;65894;53.206;-6.108;2023-02-01T01:08:53;20.33;52.87
76956;DHT22;65894;53.206;-6.108;2023-02-01T01:11:25;20.30;53.31
76956;DHT22;65894;53.206;-6.108;2023-02-01T01:13:52;20.29;53.24
76956;DHT22;65894;53.206;-6.108;2023-02-01T01:16:20;20.33;53.03
76956;DHT22;65894;53.206;-6.108;2023-02-01T01:18:46;20.32;53.03
76956;DHT22;65894;53.206;-6.108;2023-02-01T01:21:13;20.30;52.77
76956;DHT22;65894;53.206;-6.108;2023-02-01T01:23:39;20.30;52.73
76956;DHT22;65894;53.206;-6.108;2023-02-01T01:26:07;20.30;52.64
76956;DHT22;65894;53.206;-6.108;2023-02-01T01:28:32;20.30;52.40
76956;DHT22;65894;53.206;-6.108;2023-02-01T01:30:58;20.29;52.49
76956;DHT22;65894;53.206;-6.108;2023-02-01T01:33:23;20.30;52.37
76956;DHT22;65894;53.206;-6.108;2023-02-01T01:35:49;20.30;52.33
76956;DHT22;65894;53.206;-6.108;2023-02-01T01:38:14;20.29;52.23
76956;DHT22;65894;53.206;-6.108;2023-02-01T01:40:44;20.32;52.14
76956;DHT22;65894;53.206;-6.108;2023-02-01T01:43:19;20.29;52.09
76956;DHT22;65894;53.206;-6.108;2023-02-01T01:45:49;20.29;52.04
76956;DHT22;65894;53.206;-6.108;2023-02-01T01:48:27;20.32;52.01
76956;DHT22;65894;53.206;-6.108;2023-02-01T01:50:58;20.30;52.03
76956;DHT22;65894;53.206;-6.108;2023-02-01T01:53:34;20.29;51.93
76956;DHT22;65894;53.206;-6.108;2023-02-01T01:56:02;20.30;51.99
76956;DHT22;65894;53.206;-6.108;2023-02-01T01:58:29;20.30;51.91
76956;DHT22;65894;53.206;-6.108;2023-02-01T02:00:55;20.33;51.85
76956;DHT22;65894;53.206;-6.108;2023-02-01T02:03:29;20.30;51.94
76956;DHT22;65894;53.206;-6.108;2023-02-01T02:05:57;20.32;51.90
76956;DHT22;65894;53.206;-6.108;2023-02-01T02:08:25;20.32;51.84
76956;DHT22;65894;53.206;-6.108;2023-02-01T02:10:52;20.32;51.86
76956;DHT22;65894;53.206;-6.108;2023-02-01T02:13:41;20.32;51.87
76956;DHT22;65894;53.206;-6.108;2023-02-01T02:38:22;20.30;51.73
76956;DHT22;65894;53.206;-6.108;2023-02-01T02:41:05;20.32;51.74
76956;DHT22;65894;53.206;-6.108;2023-02-01T02:43:41;20.32;51.66
76956;DHT22;65894;53.206;-6.108;2023-02-01T02:46:36;20.32;51.67
76956;DHT22;65894;53.206;-6.108;2023-02-01T02:49:44;20.33;51.65
76956;DHT22;65894;53.206;-6.108;2023-02-01T02:52:36;20.34;51.57
76956;DHT22;65894;53.206;-6.108;2023-02-01T02:55:23;20.34;51.53
76956;DHT22;65894;53.206;-6.108;2023-02-01T02:57:50;20.34;51.60
76956;DHT22;65894;53.206;-6.108;2023-02-01T03:00:35;20.33;51.62
76956;DHT22;65894;53.206;-6.108;2023-02-01T03:03:20;20.36;51.76
76956;DHT22;65894;53.206;-6.108;2023-02-01T03:06:12;20.34;51.57
76956;DHT22;65894;53.206;-6.108;2023-02-01T03:08:40;20.33;51.70
76956;DHT22;65894;53.206;-6.108;2023-02-01T03:11:13;20.34;51.61
76956;DHT22;65894;53.206;-6.108;2023-02-01T03:13:53;20.36;51.60
76956;DHT22;65894;53.206;-6.108;2023-02-01T03:16:36;20.34;51.65
76956;DHT22;65894;53.206;-6.108;2023-02-01T03:19:31;20.34;51.43
76956;DHT22;65894;53.206;-6.108;2023-02-01T03:22:05;20.37;51.71
76956;DHT22;65894;53.206;-6.108;2023-02-01T03:24:43;20.36;51.71
76956;DHT22;65894;53.206;-6.108;2023-02-01T03:32:34;20.36;51.46
76956;DHT22;65894;53.206;-6.108;2023-02-01T03:35:25;20.34;51.45
76956;DHT22;65894;53.206;-6.108;2023-02-01T03:37:55;20.36;51.51
76956;DHT22;65894;53.206;-6.108;2023-02-01T03:40:22;20.34;51.55
76956;DHT22;65894;53.206;-6.108;2023-02-01T03:42:53;20.37;51.47
76956;DHT22;65894;53.206;-6.108;2023-02-01T03:45:23;20.36;51.53
76956;DHT22;65894;53.206;-6.108;2023-02-01T03:47:55;20.36;51.46
76956;DHT22;65894;53.206;-6.108;2023-02-01T03:50:24;20.37;51.42
76956;DHT22;65894;53.206;-6.108;2023-02-01T03:53:11;20.36;51.29
76956;DHT22;65894;53.206;-6.108;2023-02-01T03:55:43;20.34;51.44
76956;DHT22;65894;53.206;-6.108;2023-02-01T03:58:12;20.37;51.55
76956;DHT22;65894;53.206;-6.108;2023-02-01T04:00:40;20.37;51.29
76956;DHT22;65894;53.206;-6.108;2023-02-01T04:03:06;20.37;51.35
76956;DHT22;65894;53.206;-6.108;2023-02-01T04:05:33;20.37;51.33
76956;DHT22;65894;53.206;-6.108;2023-02-01T04:08:04;20.34;51.53
76956;DHT22;65894;53.206;-6.108;2023-02-01T04:10:30;20.36;51.55
76956;DHT22;65894;53.206;-6.108;2023-02-01T04:12:56;20.37;51.28
76956;DHT22;65894;53.206;-6.108;2023-02-01T04:15:21;20.39;51.26
76956;DHT22;65894;53.206;-6.108;2023-02-01T04:17:47;20.37;51.38
76956;DHT22;65894;53.206;-6.108;2023-02-01T04:20:12;20.39;51.47
76956;DHT22;65894;53.206;-6.108;2023-02-01T04:22:38;20.37;51.25
76956;DHT22;65894;53.206;-6.108;2023-02-01T04:25:04;20.37;51.25
76956;DHT22;65894;53.206;-6.108;2023-02-01T04:27:31;20.36;51.19
76956;DHT22;65894;53.206;-6.108;2023-02-01T04:29:56;20.39;51.36
76956;DHT22;65894;53.206;-6.108;2023-02-01T04:32:22;20.39;51.39
76956;DHT22;65894;53.206;-6.108;2023-02-01T04:34:47;20.37;51.42
76956;DHT22;65894;53.206;-6.108;2023-02-01T04:37:13;20.37;51.33
76956;DHT22;65894;53.206;-6.108;2023-02-01T04:39:38;20.40;51.33
76956;DHT22;65894;53.206;-6.108;2023-02-01T04:42:04;20.39;51.28
76956;DHT22;65894;53.206;-6.108;2023-02-01T04:44:29;20.39;51.31
76956;DHT22;65894;53.206;-6.108;2023-02-01T04:46:55;20.39;51.23
76956;DHT22;65894;53.206;-6.108;2023-02-01T04:49:20;20.39;51.33
76956;DHT22;65894;53.206;-6.108;2023-02-01T04:51:50;20.40;51.39
76956;DHT22;65894;53.206;-6.108;2023-02-01T04:54:16;20.39;51.30
76956;DHT22;65894;53.206;-6.108;2023-02-01T04:56:42;20.41;51.06
76956;DHT22;65894;53.206;-6.108;2023-02-01T04:59:07;20.37;51.19
76956;DHT22;65894;53.206;-6.108;2023-02-01T05:01:33;20.39;51.33
76956;DHT22;65894;53.206;-6.108;2023-02-01T05:03:58;20.41;51.16
76956;DHT22;65894;53.206;-6.108;2023-02-01T05:06:24;20.39;51.18
76956;DHT22;65894;53.206;-6.108;2023-02-01T05:08:50;20.39;51.08
76956;DHT22;65894;53.206;-6.108;2023-02-01T05:11:15;20.41;51.01
76956;DHT22;65894;53.206;-6.108;2023-02-01T05:14:00;20.40;51.21
76956;DHT22;65894;53.206;-6.108;2023-02-01T05:16:26;20.39;51.02
76956;DHT22;65894;53.206;-6.108;2023-02-01T05:18:52;20.39;51.15
76956;DHT22;65894;53.206;-6.108;2023-02-01T05:21:17;20.40;51.22
76956;DHT22;65894;53.206;-6.108;2023-02-01T05:23:43;20.41;51.01
76956;DHT22;65894;53.206;-6.108;2023-02-01T05:26:27;20.43;51.16
76956;DHT22;65894;53.206;-6.108;2023-02-01T05:28:53;20.41;51.11
76956;DHT22;65894;53.206;-6.108;2023-02-01T05:31:18;20.43;51.08
76956;DHT22;65894;53.206;-6.108;2023-02-01T05:33:44;20.40;51.02
76956;DHT22;65894;53.206;-6.108;2023-02-01T05:36:09;20.44;50.88
76956;DHT22;65894;53.206;-6.108;2023-02-01T05:38:35;20.41;51.19
76956;DHT22;65894;53.206;-6.108;2023-02-01T05:41:00;20.40;51.08
76956;DHT22;65894;53.206;-6.108;2023-02-01T05:43:26;20.43;51.17
76956;DHT22;65894;53.206;-6.108;2023-02-01T05:45:52;20.43;51.08
76956;DHT22;65894;53.206;-6.108;2023-02-01T05:48:18;20.41;50.96
76956;DHT22;65894;53.206;-6.108;2023-02-01T05:50:44;20.46;50.98
76956;DHT22;65894;53.206;-6.108;2023-02-01T05:53:10;20.44;51.25
76956;DHT22;65894;53.206;-6.108;2023-02-01T05:55:36;20.43;50.95
76956;DHT22;65894;53.206;-6.108;2023-02-01T05:58:02;20.44;51.20
76956;DHT22;65894;53.206;-6.108;2023-02-01T06:00:28;20.44;50.96
76956;DHT22;65894;53.206;-6.108;2023-02-01T06:02:53;20.43;51.18
76956;DHT22;65894;53.206;-6.108;2023-02-01T06:05:19;20.43;50.97
76956;DHT22;65894;53.206;-6.108;2023-02-01T06:07:44;20.43;51.16
76956;DHT22;65894;53.206;-6.108;2023-02-01T06:10:12;20.43;50.89
76956;DHT22;65894;53.206;-6.108;2023-02-01T06:12:37;20.46;50.99
76956;DHT22;65894;53.206;-6.108;2023-02-01T06:15:03;20.43;51.02
76956;DHT22;65894;53.206;-6.108;2023-02-01T06:17:29;20.44;50.88
76956;DHT22;65894;53.206;-6.108;2023-02-01T06:19:54;20.47;50.93
76956;DHT22;65894;53.206;-6.108;2023-02-01T06:22:20;20.46;50.94
76956;DHT22;65894;53.206;-6.108;2023-02-01T06:24:47;20.44;50.98
76956;DHT22;65894;53.206;-6.108;2023-02-01T06:27:13;20.46;50.86
76956;DHT22;65894;53.206;-6.108;2023-02-01T06:29:39;20.46;50.93
76956;DHT22;65894;53.206;-6.108;2023-02-01T06:32:05;20.46;50.99
76956;DHT22;65894;53.206;-6.108;2023-02-01T06:34:30;20.49;50.94
76956;DHT22;65894;53.206;-6.108;2023-02-01T06:36:56;20.49;50.90
76956;DHT22;65894;53.206;-6.108;2023-02-01T06:39:21;20.46;50.86
76956;DHT22;65894;53.206;-6.108;2023-02-01T06:41:48;20.44;50.88
76956;DHT22;65894;53.206;-6.108;2023-02-01T06:44:13;20.47;50.89
76956;DHT22;65894;53.206;-6.108;2023-02-01T06:46:39;20.47;50.92
76956;DHT22;65894;53.206;-6.108;2023-02-01T06:49:05;20.49;50.86
76956;DHT22;65894;53.206;-6.108;2023-02-01T06:51:30;20.49;50.96
76956;DHT22;65894;53.206;-6.108;2023-02-01T06:53:57;20.50;50.79
76956;DHT22;65894;53.206;-6.108;2023-02-01T06:56:23;20.46;50.81
76956;DHT22;65894;53.206;-6.108;2023-02-01T06:58:48;20.49;50.81
76956;DHT22;65894;53.206;-6.108;2023-02-01T07:01:14;20.46;50.84
76956;DHT22;65894;53.206;-6.108;2023-02-01T07:03:41;20.47;50.87
76956;DHT22;65894;53.206;-6.108;2023-02-01T07:06:07;20.50;50.88
76956;DHT22;65894;53.206;-6.108;2023-02-01T07:08:35;20.47;50.81
76956;DHT22;65894;53.206;-6.108;2023-02-01T07:11:10;20.46;50.84
76956;DHT22;65894;53.206;-6.108;2023-02-01T07:13:36;20.47;50.87
76956;DHT22;65894;53.206;-6.108;2023-02-01T07:16:04;20.49;50.82
76956;DHT22;65894;53.206;-6.108;2023-02-01T07:18:30;20.50;50.80
76956;DHT22;65894;53.206;-6.108;2023-02-01T07:20:56;20.49;50.86
76956;DHT22;65894;53.206;-6.108;2023-02-01T07:23:23;20.49;50.84
76956;DHT22;65894;53.206;-6.108;2023-02-01T07:25:49;20.50;50.83
76956;DHT22;65894;53.206;-6.108;2023-02-01T07:28:17;20.50;50.84
76956;DHT22;65894;53.206;-6.108;2023-02-01T07:30:43;20.50;50.85
76956;DHT22;65894;53.206;-6.108;2023-02-01T07:33:08;20.50;50.78
76956;DHT22;65894;53.206;-6.108;2023-02-01T07:35:34;20.50;50.94
76956;DHT22;65894;53.206;-6.108;2023-02-01T07:37:59;20.53;51.07
76956;DHT22;65894;53.206;-6.108;2023-02-01T07:40:25;20.51;51.04
76956;DHT22;65894;53.206;-6.108;2023-02-01T07:42:57;20.51;50.78
76956;DHT22;65894;53.206;-6.108;2023-02-01T07:45:23;20.46;51.05
76956;DHT22;65894;53.206;-6.108;2023-02-01T07:47:51;20.47;50.86
76956;DHT22;65894;53.206;-6.108;2023-02-01T07:50:17;20.47;51.19
76956;DHT22;65894;53.206;-6.108;2023-02-01T07:52:42;20.46;50.83
76956;DHT22;65894;53.206;-6.108;2023-02-01T07:55:08;20.44;50.70
76956;DHT22;65894;53.206;-6.108;2023-02-01T07:57:34;20.46;50.79
76956;DHT22;65894;53.206;-6.108;2023-02-01T07:59:59;20.47;50.65
76956;DHT22;65894;53.206;-6.108;2023-02-01T08:02:43;20.47;50.98
76956;DHT22;65894;53.206;-6.108;2023-02-01T08:05:08;20.46;50.63
76956;DHT22;65894;53.206;-6.108;2023-02-01T08:07:34;20.49;50.61
76956;DHT22;65894;53.206;-6.108;2023-02-01T08:09:59;20.50;50.68
76956;DHT22;65894;53.206;-6.108;2023-02-01T08:12:25;20.50;50.63
76956;DHT22;65894;53.206;-6.108;2023-02-01T08:14:52;20.50;50.68
76956;DHT22;65894;53.206;-6.108;2023-02-01T08:17:19;20.50;50.74
76956;DHT22;65894;53.206;-6.108;2023-02-01T08:19:44;20.51;50.68
76956;DHT22;65894;53.206;-6.108;2023-02-01T08:22:09;20.53;50.76
76956;DHT22;65894;53.206;-6.108;2023-02-01T08:24:35;20.53;50.75
76956;DHT22;65894;53.206;-6.108;2023-02-01T08:27:03;20.53;50.70
76956;DHT22;65894;53.206;-6.108;2023-02-01T08:29:28;20.54;50.84
76956;DHT22;65894;53.206;-6.108;2023-02-01T08:31:54;20.57;50.91
76956;DHT22;65894;53.206;-6.108;2023-02-01T08:34:20;20.56;50.95
76956;DHT22;65894;53.206;-6.108;2023-02-01T08:36:45;20.57;50.99
76956;DHT22;65894;53.206;-6.108;2023-02-01T08:39:11;20.56;50.96
76956;DHT22;65894;53.206;-6.108;2023-02-01T08:41:37;20.59;51.02
76956;DHT22;65894;53.206;-6.108;2023-02-01T08:44:03;20.56;50.95
76956;DHT22;65894;53.206;-6.108;2023-02-01T08:46:29;20.56;50.82
76956;DHT22;65894;53.206;-6.108;2023-02-01T08:48:55;20.54;50.92
76956;DHT22;65894;53.206;-6.108;2023-02-01T08:51:22;20.56;50.97
76956;DHT22;65894;53.206;-6.108;2023-02-01T08:53:48;20.54;50.90
76956;DHT22;65894;53.206;-6.108;2023-02-01T08:56:16;20.57;51.00
76956;DHT22;65894;53.206;-6.108;2023-02-01T08:58:42;20.53;50.95
76956;DHT22;65894;53.206;-6.108;2023-02-01T09:01:13;20.54;51.02
76956;DHT22;65894;53.206;-6.108;2023-02-01T09:03:39;20.57;51.00
76956;DHT22;65894;53.206;-6.108;2023-02-01T09:06:08;20.57;50.98
76956;DHT22;65894;53.206;-6.108;2023-02-01T09:08:34;20.57;50.95
76956;DHT22;65894;53.206;-6.108;2023-02-01T09:11:02;20.54;50.66
76956;DHT22;65894;53.206;-6.108;2023-02-01T09:13:28;20.51;50.89
76956;DHT22;65894;53.206;-6.108;2023-02-01T09:15:54;20.53;50.93
76956;DHT22;65894;53.206;-6.108;2023-02-01T09:18:20;20.54;50.91
76956;DHT22;65894;53.206;-6.108;2023-02-01T09:20:45;20.54;50.94
76956;DHT22;65894;53.206;-6.108;2023-02-01T09:23:11;20.44;51.00
76956;DHT22;65894;53.206;-6.108;2023-02-01T09:25:38;20.49;50.74
76956;DHT22;65894;53.206;-6.108;2023-02-01T09:28:04;20.49;50.82
76956;DHT22;65894;53.206;-6.108;2023-02-01T09:30:32;20.50;50.77
76956;DHT22;65894;53.206;-6.108;2023-02-01T09:32:58;20.51;50.84
76956;DHT22;65894;53.206;-6.108;2023-02-01T09:35:23;20.56;50.88
76956;DHT22;65894;53.206;-6.108;2023-02-01T09:37:49;20.56;50.91
76956;DHT22;65894;53.206;-6.108;2023-02-01T09:40:16;20.51;50.98
76956;DHT22;65894;53.206;-6.108;2023-02-01T09:45:47;20.46;50.70
76956;DHT22;65894;53.206;-6.108;2023-02-01T09:48:20;20.47;50.44
76956;DHT22;65894;53.206;-6.108;2023-02-01T09:50:56;20.46;50.59
76956;DHT22;65894;53.206;-6.108;2023-02-01T09:53:27;20.49;50.70
76956;DHT22;65894;53.206;-6.108;2023-02-01T09:56:00;20.49;50.76
76956;DHT22;65894;53.206;-6.108;2023-02-01T10:01:11;20.54;50.94
76956;DHT22;65894;53.206;-6.108;2023-02-01T10:03:37;20.54;51.03
76956;DHT22;65894;53.206;-6.108;2023-02-01T10:06:55;20.54;51.13
76956;DHT22;65894;53.206;-6.108;2023-02-01T10:09:08;20.56;51.28
76956;DHT22;65894;53.206;-6.108;2023-02-01T10:23:41;20.53;51.15
76956;DHT22;65894;53.206;-6.108;2023-02-01T10:25:56;20.54;51.28
76956;DHT22;65894;53.206;-6.108;2023-02-01T10:28:25;20.54;51.29
76956;DHT22;65894;53.206;-6.108;2023-02-01T10:30:56;20.53;51.28
76956;DHT22;65894;53.206;-6.108;2023-02-01T10:33:47;20.56;51.30
76956;DHT22;65894;53.206;-6.108;2023-02-01T10:38:56;20.54;51.30
76956;DHT22;65894;53.206;-6.108;2023-02-01T10:41:22;20.56;51.24
76956;DHT22;65894;53.206;-6.108;2023-02-01T10:43:56;20.53;51.27
76956;DHT22;65894;53.206;-6.108;2023-02-01T10:46:26;20.53;51.33
76956;DHT22;65894;53.206;-6.108;2023-02-01T10:48:52;20.54;51.31
76956;DHT22;65894;53.206;-6.108;2023-02-01T10:51:33;20.56;51.37
76956;DHT22;65894;53.206;-6.108;2023-02-01T10:54:13;20.54;51.30
76956;DHT22;65894;53.206;-6.108;2023-02-01T10:56:39;20.56;51.30
76956;DHT22;65894;53.206;-6.108;2023-02-01T10:59:11;20.51;51.27
76956;DHT22;65894;53.206;-6.108;2023-02-01T11:01:41;20.53;51.34
76956;DHT22;65894;53.206;-6.108;2023-02-01T11:04:10;20.51;51.39
76956;DHT22;65894;53.206;-6.108;2023-02-01T11:06:44;20.53;51.32
76956;DHT22;65894;53.206;-6.108;2023-02-01T11:11:53;20.51;51.33
76956;DHT22;65894;53.206;-6.108;2023-02-01T11:14:34;20.53;51.27
76956;DHT22;65894;53.206;-6.108;2023-02-01T11:17:03;20.56;51.33
76956;DHT22;65894;53.206;-6.108;2023-02-01T11:19:46;20.53;51.30
76956;DHT22;65894;53.206;-6.108;2023-02-01T11:22:13;20.34;49.60
76956;DHT22;65894;53.206;-6.108;2023-02-01T11:24:44;20.40;50.74
76956;DHT22;65894;53.206;-6.108;2023-02-01T11:27:16;20.46;51.11
76956;DHT22;65894;53.206;-6.108;2023-02-01T11:29:45;20.44;51.01
76956;DHT22;65894;53.206;-6.108;2023-02-01T11:32:13;20.49;51.11
76956;DHT22;65894;53.206;-6.108;2023-02-01T11:37:24;20.51;51.23
76956;DHT22;65894;53.206;-6.108;2023-02-01T11:40:01;20.49;51.20
76956;DHT22;65894;53.206;-6.108;2023-02-01T11:42:32;20.50;51.23
76956;DHT22;65894;53.206;-6.108;2023-02-01T11:45:18;20.53;51.26
76956;DHT22;65894;53.206;-6.108;2023-02-01T11:47:45;20.51;51.27
76956;DHT22;65894;53.206;-6.108;2023-02-01T11:50:18;20.51;51.26
76956;DHT22;65894;53.206;-6.108;2023-02-01T12:06:49;20.51;51.35
76956;DHT22;65894;53.206;-6.108;2023-02-01T12:20:18;20.56;51.29
76956;DHT22;65894;53.206;-6.108;2023-02-01T12:36:18;20.54;51.32
76956;DHT22;65894;53.206;-6.108;2023-02-01T12:41:58;20.56;51.45
76956;DHT22;65894;53.206;-6.108;2023-02-01T12:44:39;20.56;51.29
76956;DHT22;65894;53.206;-6.108;2023-02-01T12:47:14;20.54;51.27
76956;DHT22;65894;53.206;-6.108;2023-02-01T12:49:55;20.54;51.29
76956;DHT22;65894;53.206;-6.108;2023-02-01T12:52:52;20.56;51.31
76956;DHT22;65894;53.206;-6.108;2023-02-01T12:55:24;20.53;51.24
76956;DHT22;65894;53.206;-6.108;2023-02-01T12:57:56;20.57;51.23
76956;DHT22;65894;53.206;-6.108;2023-02-01T13:00:32;20.56;51.24
76956;DHT22;65894;53.206;-6.108;2023-02-01T13:03:05;20.54;51.28
76956;DHT22;65894;53.206;-6.108;2023-02-01T13:05:58;20.57;51.28
76956;DHT22;65894;53.206;-6.108;2023-02-01T13:08:29;20.54;51.31
76956;DHT22;65894;53.206;-6.108;2023-02-01T13:11:08;20.56;51.24
76956;DHT22;65894;53.206;-6.108;2023-02-01T13:14:35;20.57;51.34
76956;DHT22;65894;53.206;-6.108;2023-02-01T13:16:35;20.59;51.24
76956;DHT22;65894;53.206;-6.108;2023-02-01T13:19:11;20.60;51.31
76956;DHT22;65894;53.206;-6.108;2023-02-01T13:21:46;20.60;51.32
76956;DHT22;65894;53.206;-6.108;2023-02-01T13:27:11;20.57;51.33
76956;DHT22;65894;53.206;-6.108;2023-02-01T13:29:45;20.57;51.43
76956;DHT22;65894;53.206;-6.108;2023-02-01T13:41:29;20.53;51.28
76956;DHT22;65894;53.206;-6.108;2023-02-01T13:43:36;20.54;51.25
76956;DHT22;65894;53.206;-6.108;2023-02-01T13:46:08;20.54;51.30
76956;DHT22;65894;53.206;-6.108;2023-02-01T13:48:52;20.54;51.28
76956;DHT22;65894;53.206;-6.108;2023-02-01T13:53:57;20.56;51.34
76956;DHT22;65894;53.206;-6.108;2023-02-01T13:56:24;20.56;51.35
76956;DHT22;65894;53.206;-6.108;2023-02-01T13:58:50;20.54;51.33
76956;DHT22;65894;53.206;-6.108;2023-02-01T14:03:48;20.56;51.34
76956;DHT22;65894;53.206;-6.108;2023-02-01T14:06:17;20.54;51.38
76956;DHT22;65894;53.206;-6.108;2023-02-01T14:08:45;20.56;51.48
76956;DHT22;65894;53.206;-6.108;2023-02-01T14:11:33;20.57;51.42
76956;DHT22;65894;53.206;-6.108;2023-02-01T14:19:28;20.54;51.52
76956;DHT22;65894;53.206;-6.108;2023-02-01T14:22:31;20.54;51.45
76956;DHT22;65894;53.206;-6.108;2023-02-01T14:24:56;20.53;51.48
76956;DHT22;65894;53.206;-6.108;2023-02-01T14:27:25;20.49;51.34
76956;DHT22;65894;53.206;-6.108;2023-02-01T14:30:01;20.51;51.24
76956;DHT22;65894;53.206;-6.108;2023-02-01T14:32:40;20.50;51.33
76956;DHT22;65894;53.206;-6.108;2023-02-01T14:35:17;20.54;51.30
76956;DHT22;65894;53.206;-6.108;2023-02-01T14:37:45;20.54;51.30
76956;DHT22;65894;53.206;-6.108;2023-02-01T14:42:45;20.53;51.40
76956;DHT22;65894;53.206;-6.108;2023-02-01T14:56:00;20.51;51.50
76956;DHT22;65894;53.206;-6.108;2023-02-01T15:06:37;20.50;51.52
76956;DHT22;65894;53.206;-6.108;2023-02-01T15:09:24;20.51;51.55
76956;DHT22;65894;53.206;-6.108;2023-02-01T15:15:15;20.50;51.57
76956;DHT22;65894;53.206;-6.108;2023-02-01T15:17:53;20.50;51.60
76956;DHT22;65894;53.206;-6.108;2023-02-01T15:20:25;20.50;51.65
76956;DHT22;65894;53.206;-6.108;2023-02-01T15:22:59;20.50;51.62
76956;DHT22;65894;53.206;-6.108;2023-02-01T15:25:34;20.47;51.61
76956;DHT22;65894;53.206;-6.108;2023-02-01T15:28:02;20.47;51.66
76956;DHT22;65894;53.206;-6.108;2023-02-01T15:30:30;20.50;51.66
76956;DHT22;65894;53.206;-6.108;2023-02-01T15:33:15;20.49;51.68
76956;DHT22;65894;53.206;-6.108;2023-02-01T15:43:21;20.49;51.74
76956;DHT22;65894;53.206;-6.108;2023-02-01T15:45:47;20.49;51.70
76956;DHT22;65894;53.206;-6.108;2023-02-01T15:48:22;20.49;51.71
76956;DHT22;65894;53.206;-6.108;2023-02-01T15:50:48;20.47;51.75
76956;DHT22;65894;53.206;-6.108;2023-02-01T15:53:19;20.50;51.76
76956;DHT22;65894;53.206;-6.108;2023-02-01T15:55:45;20.47;51.76
76956;DHT22;65894;53.206;-6.108;2023-02-01T15:58:23;20.47;51.75
76956;DHT22;65894;53.206;-6.108;2023-02-01T16:00:58;20.47;51.77
76956;DHT22;65894;53.206;-6.108;2023-02-01T16:03:43;20.50;51.77
76956;DHT22;65894;53.206;-6.108;2023-02-01T16:06:27;20.49;51.73
76956;DHT22;65894;53.206;-6.108;2023-02-01T16:11:33;20.47;51.82
76956;DHT22;65894;53.206;-6.108;2023-02-01T16:14:04;20.47;51.78
76956;DHT22;65894;53.206;-6.108;2023-02-01T16:16:30;20.47;51.79
76956;DHT22;65894;53.206;-6.108;2023-02-01T16:18:56;20.46;51.74
76956;DHT22;65894;53.206;-6.108;2023-02-01T16:21:21;20.47;51.76
76956;DHT22;65894;53.206;-6.108;2023-02-01T16:23:49;20.50;51.74
76956;DHT22;65894;53.206;-6.108;2023-02-01T16:26:15;20.46;51.81
76956;DHT22;65894;53.206;-6.108;2023-02-01T16:28:41;20.46;51.79
76956;DHT22;65894;53.206;-6.108;2023-02-01T16:31:12;20.44;51.78
76956;DHT22;65894;53.206;-6.108;2023-02-01T16:33:50;20.46;51.77
76956;DHT22;65894;53.206;-6.108;2023-02-01T16:36:16;20.47;51.80
76956;DHT22;65894;53.206;-6.108;2023-02-01T16:38:42;20.46;51.87
76956;DHT22;65894;53.206;-6.108;2023-02-01T16:41:19;20.46;51.78
76956;DHT22;65894;53.206;-6.108;2023-02-01T16:43:45;20.46;51.81
76956;DHT22;65894;53.206;-6.108;2023-02-01T16:46:15;20.46;51.77
76956;DHT22;65894;53.206;-6.108;2023-02-01T16:48:44;20.47;51.73
76956;DHT22;65894;53.206;-6.108;2023-02-01T16:51:13;20.47;51.77
76956;DHT22;65894;53.206;-6.108;2023-02-01T16:53:39;20.46;51.76
76956;DHT22;65894;53.206;-6.108;2023-02-01T16:58:41;20.44;51.73
76956;DHT22;65894;53.206;-6.108;2023-02-01T17:01:11;20.46;51.74
76956;DHT22;65894;53.206;-6.108;2023-02-01T17:03:38;20.46;51.78
76956;DHT22;65894;53.206;-6.108;2023-02-01T17:06:04;20.46;51.70
76956;DHT22;65894;53.206;-6.108;2023-02-01T17:08:33;20.47;51.77
76956;DHT22;65894;53.206;-6.108;2023-02-01T17:10:59;20.46;51.82
76956;DHT22;65894;53.206;-6.108;2023-02-01T17:13:25;20.46;51.78
76956;DHT22;65894;53.206;-6.108;2023-02-01T17:18:22;20.47;51.82
76956;DHT22;65894;53.206;-6.108;2023-02-01T17:20:51;20.46;51.76
76956;DHT22;65894;53.206;-6.108;2023-02-01T17:23:18;20.47;51.81
76956;DHT22;65894;53.206;-6.108;2023-02-01T17:25:44;20.47;51.83
76956;DHT22;65894;53.206;-6.108;2023-02-01T17:28:09;20.46;51.78
76956;DHT22;65894;53.206;-6.108;2023-02-01T17:30:37;20.47;51.84
76956;DHT22;65894;53.206;-6.108;2023-02-01T17:33:03;20.46;51.75
76956;DHT22;65894;53.206;-6.108;2023-02-01T17:35:28;20.49;51.76
76956;DHT22;65894;53.206;-6.108;2023-02-01T17:37:55;20.46;51.73
76956;DHT22;65894;53.206;-6.108;2023-02-01T17:40:20;20.47;51.58
76956;DHT22;65894;53.206;-6.108;2023-02-01T17:42:47;20.44;51.66
76956;DHT22;65894;53.206;-6.108;2023-02-01T17:45:36;20.46;51.73
76956;DHT22;65894;53.206;-6.108;2023-02-01T17:48:04;20.47;51.73
76956;DHT22;65894;53.206;-6.108;2023-02-01T17:50:32;20.44;51.60
76956;DHT22;65894;53.206;-6.108;2023-02-01T17:52:58;20.41;51.66
76956;DHT22;65894;53.206;-6.108;2023-02-01T17:55:25;20.43;51.73
76956;DHT22;65894;53.206;-6.108;2023-02-01T17:57:50;20.44;51.67
76956;DHT22;65894;53.206;-6.108;2023-02-01T18:00:17;20.46;51.67
76956;DHT22;65894;53.206;-6.108;2023-02-01T18:02:43;20.46;51.70
76956;DHT22;65894;53.206;-6.108;2023-02-01T18:05:19;20.46;51.71
76956;DHT22;65894;53.206;-6.108;2023-02-01T18:07:47;20.46;51.65